createdAt,value
2023-01-17T00:02:14.862Z,4.80
2023-01-17T00:05:00.723Z,4.70
2023-01-17T00:07:46.903Z,4.70
2023-01-17T00:10:23.074Z,4.70
2023-01-17T00:12:53.568Z,4.70
2023-01-17T00:15:23.137Z,4.60
2023-01-17T00:17:50.896Z,4.70
2023-01-17T00:20:38.878Z,4.60
2023-01-17T00:23:32.900Z,4.60
2023-01-17T00:26:05.826Z,4.60
2023-01-17T00:28:38.143Z,4.60
2023-01-17T00:31:06.717Z,4.60
2023-01-17T00:33:33.679Z,4.60
2023-01-17T00:36:01.594Z,4.60
2023-01-17T00:38:33.619Z,4.60
2023-01-17T00:41:11.203Z,4.50
2023-01-17T00:43:57.710Z,4.50
2023-01-17T00:46:43.249Z,4.50
2023-01-17T00:49:29.197Z,4.50
2023-01-17T00:52:14.961Z,4.50
2023-01-17T00:55:00.482Z,4.40
2023-01-17T00:57:45.808Z,4.40
2023-01-17T01:00:31.621Z,4.30
2023-01-17T01:03:17.108Z,4.30
2023-01-17T01:06:02.718Z,4.20
2023-01-17T01:08:49.074Z,4.20
2023-01-17T01:11:42.523Z,4.20
2023-01-17T01:14:30.218Z,4.20
2023-01-17T01:17:15.855Z,4.20
2023-01-17T01:20:01.054Z,4.20
2023-01-17T01:22:46.517Z,4.30
2023-01-17T01:25:32.021Z,4.30
2023-01-17T01:28:31.414Z,4.30
2023-01-17T01:31:21.386Z,4.30
2023-01-17T01:33:48.318Z,4.30
2023-01-17T01:36:15.661Z,4.30
2023-01-17T01:38:42.554Z,4.20
2023-01-17T01:41:10.168Z,4.20
2023-01-17T01:43:41.760Z,4.20
2023-01-17T01:46:13.131Z,4.10
2023-01-17T01:48:42.500Z,4.00
2023-01-17T01:51:17.386Z,3.80
2023-01-17T01:53:47.979Z,3.70
2023-01-17T01:56:16.305Z,3.50
2023-01-17T01:58:47.684Z,3.40
2023-01-17T02:01:15.434Z,3.30
2023-01-17T02:03:48.309Z,3.30
2023-01-17T02:06:25.546Z,3.20
2023-01-17T02:09:02.491Z,3.20
2023-01-17T02:11:30.129Z,3.00
2023-01-17T02:13:57.207Z,3.00
2023-01-17T02:16:34.812Z,2.90
2023-01-17T02:19:35.693Z,2.80
2023-01-17T02:22:27.515Z,2.80
2023-01-17T02:25:13.301Z,2.80
2023-01-17T02:28:07.479Z,2.70
2023-01-17T02:30:35.838Z,2.70
2023-01-17T02:33:12.269Z,2.70
2023-01-17T02:35:53.097Z,2.70
2023-01-17T02:38:41.800Z,2.70
2023-01-17T02:41:29.642Z,2.70
2023-01-17T02:43:57.509Z,2.60
2023-01-17T02:46:24.600Z,2.60
2023-01-17T02:48:52.263Z,2.40
2023-01-17T02:51:39.377Z,2.40
2023-01-17T02:54:35.243Z,2.30
2023-01-17T02:57:20.937Z,2.30
2023-01-17T02:59:54.116Z,2.30
2023-01-17T03:02:39.535Z,2.20
2023-01-17T03:05:23.153Z,2.20
2023-01-17T03:07:52.401Z,2.20
2023-01-17T03:10:20.425Z,2.20
2023-01-17T03:12:51.043Z,2.20
2023-01-17T03:15:18.038Z,2.20
2023-01-17T03:17:49.681Z,2.20
2023-01-17T03:20:16.947Z,2.30
2023-01-17T03:22:44.432Z,2.30
2023-01-17T03:25:11.942Z,2.30
2023-01-17T03:27:38.980Z,2.40
2023-01-17T03:30:07.462Z,2.40
2023-01-17T03:32:34.875Z,2.40
2023-01-17T03:35:01.722Z,2.40
2023-01-17T03:37:28.620Z,2.40
2023-01-17T03:39:55.553Z,2.40
2023-01-17T03:42:22.424Z,2.40
2023-01-17T03:44:49.692Z,2.40
2023-01-17T03:47:17.014Z,2.40
2023-01-17T03:49:44.241Z,2.50
2023-01-17T03:52:11.029Z,2.50
2023-01-17T03:54:37.973Z,2.40
2023-01-17T03:57:04.950Z,2.50
2023-01-17T03:59:34.693Z,2.50
2023-01-17T04:02:01.767Z,2.50
2023-01-17T04:04:28.794Z,2.50
2023-01-17T04:06:56.628Z,2.60
2023-01-17T04:09:23.425Z,2.60
2023-01-17T04:11:53.371Z,2.60
2023-01-17T04:14:20.275Z,2.60
2023-01-17T04:16:47.983Z,2.60
2023-01-17T04:19:14.902Z,2.60
2023-01-17T04:21:41.825Z,2.60
2023-01-17T04:24:09.147Z,2.60
2023-01-17T04:26:36.527Z,2.60
2023-01-17T04:29:05.003Z,2.60
2023-01-17T04:31:32.332Z,2.60
2023-01-17T04:33:59.239Z,2.60
2023-01-17T04:36:26.498Z,2.70
2023-01-17T04:38:53.333Z,2.70
2023-01-17T04:41:20.745Z,2.60
2023-01-17T04:43:48.554Z,2.70
2023-01-17T04:46:15.555Z,2.70
2023-01-17T04:48:42.880Z,2.60
2023-01-17T04:51:09.809Z,2.60
2023-01-17T04:53:37.173Z,2.60
2023-01-17T04:56:04.511Z,2.70
2023-01-17T04:58:33.366Z,2.70
2023-01-17T05:01:08.113Z,2.70
2023-01-17T05:03:35.502Z,2.70
2023-01-17T05:06:02.868Z,2.70
2023-01-17T05:08:29.806Z,2.70
2023-01-17T05:10:56.787Z,2.70
2023-01-17T05:13:23.809Z,2.80
2023-01-17T05:15:50.762Z,2.70
2023-01-17T05:18:18.913Z,2.70
2023-01-17T05:20:45.801Z,2.80
2023-01-17T05:23:12.802Z,2.70
2023-01-17T05:25:44.179Z,2.70
2023-01-17T05:28:13.029Z,2.60
2023-01-17T05:30:40.089Z,2.50
2023-01-17T05:33:07.986Z,2.50
2023-01-17T05:35:34.893Z,2.50
2023-01-17T05:38:02.247Z,2.40
2023-01-17T05:40:33.427Z,2.40
2023-01-17T05:43:01.417Z,2.40
2023-01-17T05:45:30.685Z,2.30
2023-01-17T05:47:58.509Z,2.30
2023-01-17T05:50:31.761Z,2.30
2023-01-17T05:53:01.430Z,2.30
2023-01-17T05:55:34.686Z,2.30
2023-01-17T05:58:02.816Z,2.20
2023-01-17T06:00:30.850Z,2.30
2023-01-17T06:02:59.734Z,2.30
2023-01-17T06:05:27.675Z,2.30
2023-01-17T06:07:55.192Z,2.30
2023-01-17T06:10:22.329Z,2.30
2023-01-17T06:12:49.592Z,2.40
2023-01-17T06:15:17.733Z,2.30
2023-01-17T06:17:44.504Z,2.30
2023-01-17T06:20:12.273Z,2.30
2023-01-17T06:22:39.328Z,2.30
2023-01-17T06:25:06.948Z,2.30
2023-01-17T06:27:33.784Z,2.20
2023-01-17T06:30:00.416Z,2.20
2023-01-17T06:32:27.634Z,2.20
2023-01-17T06:34:54.343Z,2.20
2023-01-17T06:37:21.091Z,2.20
2023-01-17T06:39:47.830Z,2.20
2023-01-17T06:42:14.517Z,2.10
2023-01-17T06:44:41.117Z,2.10
2023-01-17T06:47:07.749Z,2.10
2023-01-17T06:49:34.457Z,2.10
2023-01-17T06:52:01.267Z,2.10
2023-01-17T06:54:27.890Z,2.10
2023-01-17T06:56:54.567Z,2.20
2023-01-17T06:59:21.746Z,2.20
2023-01-17T07:01:48.425Z,2.30
2023-01-17T07:04:15.203Z,2.30
2023-01-17T07:06:41.847Z,2.20
2023-01-17T07:09:08.448Z,2.10
2023-01-17T07:11:35.515Z,2.20
2023-01-17T07:14:02.173Z,2.30
2023-01-17T07:16:28.863Z,2.30
2023-01-17T07:18:56.929Z,2.30
2023-01-17T07:21:24.145Z,2.30
2023-01-17T07:23:50.821Z,2.30
2023-01-17T07:26:17.883Z,2.20
2023-01-17T07:28:44.532Z,2.20
2023-01-17T07:31:11.424Z,2.20
2023-01-17T07:33:38.690Z,2.20
2023-01-17T07:36:07.411Z,2.20
2023-01-17T07:38:34.865Z,2.10
2023-01-17T07:41:01.815Z,2.10
2023-01-17T07:43:28.482Z,2.00
2023-01-17T07:45:55.505Z,1.90
2023-01-17T07:48:24.428Z,1.80
2023-01-17T07:50:55.928Z,1.80
2023-01-17T07:53:27.726Z,1.70
2023-01-17T07:55:54.841Z,1.70
2023-01-17T07:58:21.848Z,1.60
2023-01-17T08:00:48.552Z,1.50
2023-01-17T08:03:18.294Z,1.50
2023-01-17T08:05:54.805Z,1.50
2023-01-17T08:08:21.601Z,1.50
2023-01-17T08:10:49.397Z,1.50
2023-01-17T08:13:16.033Z,1.60
2023-01-17T08:15:43.016Z,1.70
2023-01-17T08:18:09.923Z,1.70
2023-01-17T08:20:36.549Z,1.80
2023-01-17T08:23:03.204Z,1.80
2023-01-17T08:25:29.916Z,1.80
2023-01-17T08:27:57.824Z,1.80
2023-01-17T08:30:25.786Z,1.80
2023-01-17T08:32:52.645Z,1.80
2023-01-17T08:35:19.960Z,1.90
2023-01-17T08:37:48.309Z,1.90
2023-01-17T08:40:18.007Z,1.90
2023-01-17T08:42:44.902Z,1.90
2023-01-17T08:45:12.922Z,1.90
2023-01-17T08:47:39.546Z,1.90
2023-01-17T08:50:06.830Z,1.90
2023-01-17T08:52:33.794Z,1.90
2023-01-17T08:55:00.894Z,1.90
2023-01-17T08:57:28.171Z,2.00
2023-01-17T08:59:54.954Z,2.10
2023-01-17T09:02:23.984Z,2.20
2023-01-17T09:04:51.242Z,2.30
2023-01-17T09:07:20.392Z,2.40
2023-01-17T09:09:47.112Z,2.60
2023-01-17T09:12:14.082Z,2.60
2023-01-17T09:14:41.087Z,2.70
2023-01-17T09:17:07.801Z,2.70
2023-01-17T09:19:35.413Z,2.70
2023-01-17T09:22:04.432Z,2.90
2023-01-17T09:24:32.672Z,3.00
2023-01-17T09:27:00.167Z,3.10
2023-01-17T09:29:27.692Z,3.20
2023-01-17T09:31:54.371Z,3.20
2023-01-17T09:34:21.817Z,3.30
2023-01-17T09:36:48.564Z,3.30
2023-01-17T09:39:15.340Z,3.30
2023-01-17T09:41:51.392Z,3.30
2023-01-17T09:44:40.083Z,3.30
2023-01-17T09:47:31.259Z,3.40
2023-01-17T09:50:20.650Z,3.50
2023-01-17T09:52:47.956Z,3.50
2023-01-17T09:55:16.333Z,3.50
2023-01-17T09:58:10.501Z,3.50
2023-01-17T10:00:48.714Z,3.50
2023-01-17T10:03:28.682Z,3.60
2023-01-17T10:06:12.931Z,3.70
2023-01-17T10:09:15.840Z,3.70
2023-01-17T10:11:54.361Z,3.80
2023-01-17T10:14:55.039Z,3.70
2023-01-17T10:17:36.718Z,3.60
2023-01-17T10:20:34.140Z,3.60
2023-01-17T10:23:00.820Z,3.70
2023-01-17T10:25:43.757Z,3.70
2023-01-17T10:28:25.990Z,3.60
2023-01-17T10:30:58.226Z,3.70
2023-01-17T10:33:29.525Z,3.70
2023-01-17T10:36:04.013Z,3.80
2023-01-17T10:38:41.895Z,3.80
2023-01-17T10:41:30.060Z,3.80
2023-01-17T10:44:06.189Z,3.90
2023-01-17T10:46:48.284Z,4.10
2023-01-17T10:49:21.574Z,4.20
2023-01-17T10:52:01.601Z,4.30
2023-01-17T10:54:58.990Z,4.40
2023-01-17T10:57:28.138Z,4.40
2023-01-17T10:59:59.684Z,4.40
2023-01-17T11:02:33.000Z,4.50
2023-01-17T11:05:10.421Z,4.60
2023-01-17T11:07:40.057Z,4.80
2023-01-17T11:10:07.129Z,5.00
2023-01-17T11:12:40.750Z,5.10
2023-01-17T11:15:10.400Z,5.10
2023-01-17T11:17:48.742Z,5.30
2023-01-17T11:20:34.019Z,5.40
2023-01-17T11:23:12.614Z,5.30
2023-01-17T11:25:39.844Z,5.30
2023-01-17T11:28:19.613Z,5.40
2023-01-17T11:30:55.729Z,5.60
2023-01-17T11:33:47.622Z,5.70
2023-01-17T11:36:28.833Z,5.70
2023-01-17T11:39:06.851Z,5.80
2023-01-17T11:41:40.031Z,5.90
2023-01-17T11:44:23.120Z,6.00
2023-01-17T11:47:13.274Z,5.90
2023-01-17T11:49:50.024Z,5.70
2023-01-17T11:52:24.591Z,5.60
2023-01-17T11:54:54.320Z,5.70
2023-01-17T11:57:32.019Z,5.80
2023-01-17T12:00:13.275Z,6.00
2023-01-17T12:02:51.026Z,6.00
2023-01-17T12:05:24.193Z,5.90
2023-01-17T12:08:21.155Z,5.90
2023-01-17T12:10:57.170Z,6.00
2023-01-17T12:14:02.409Z,6.00
2023-01-17T12:16:59.468Z,6.00
2023-01-17T12:20:06.612Z,5.90
2023-01-17T12:22:48.143Z,5.80
2023-01-17T12:25:26.698Z,5.70
2023-01-17T12:28:22.111Z,5.80
2023-01-17T12:31:10.619Z,5.70
2023-01-17T12:33:55.067Z,5.70
2023-01-17T12:36:21.669Z,5.70
2023-01-17T12:38:49.458Z,5.60
2023-01-17T12:41:26.499Z,5.50
2023-01-17T12:43:59.927Z,5.60
2023-01-17T12:46:32.373Z,5.70
2023-01-17T12:49:16.499Z,5.70
2023-01-17T12:51:47.454Z,5.80
2023-01-17T12:54:24.188Z,5.60
2023-01-17T12:57:03.610Z,5.50
2023-01-17T12:59:34.389Z,5.50
2023-01-17T13:02:07.280Z,5.50
2023-01-17T13:04:57.489Z,5.50
2023-01-17T13:07:32.390Z,5.70
2023-01-17T13:10:08.173Z,5.90
2023-01-17T13:12:38.657Z,6.00
2023-01-17T13:15:17.163Z,6.00
2023-01-17T13:17:57.114Z,6.10
2023-01-17T13:20:47.494Z,6.30
2023-01-17T13:23:28.093Z,6.40
2023-01-17T13:25:57.365Z,6.50
2023-01-17T13:29:08.514Z,6.30
2023-01-17T13:32:16.623Z,6.30
2023-01-17T13:34:55.242Z,6.40
2023-01-17T13:38:08.323Z,6.40
2023-01-17T13:40:50.624Z,6.30
2023-01-17T13:43:35.538Z,6.20
2023-01-17T13:46:03.813Z,6.20
2023-01-17T13:48:40.873Z,6.20
2023-01-17T13:51:09.457Z,6.10
2023-01-17T13:53:36.794Z,6.10
2023-01-17T13:56:14.088Z,6.00
2023-01-17T13:58:58.348Z,5.90
2023-01-17T14:01:25.176Z,5.90
2023-01-17T14:03:52.347Z,5.90
2023-01-17T14:06:44.842Z,5.80
2023-01-17T14:09:14.485Z,5.70
2023-01-17T14:12:07.137Z,5.70
2023-01-17T14:14:36.968Z,5.70
2023-01-17T14:17:16.020Z,5.70
2023-01-17T14:19:47.896Z,5.70
2023-01-17T14:22:36.356Z,5.60
2023-01-17T14:25:12.497Z,5.50
2023-01-17T14:27:42.192Z,5.60
2023-01-17T14:30:18.869Z,5.50
2023-01-17T14:33:08.673Z,5.50
2023-01-17T14:36:00.787Z,5.40
2023-01-17T14:38:31.565Z,5.50
2023-01-17T14:41:08.657Z,5.30
2023-01-17T14:43:38.600Z,5.10
2023-01-17T14:46:41.640Z,5.10
2023-01-17T14:49:28.662Z,5.10
2023-01-17T14:52:00.831Z,5.00
2023-01-17T14:54:27.589Z,5.10
2023-01-17T14:57:26.202Z,5.10
2023-01-17T15:00:13.644Z,5.00
2023-01-17T15:02:42.766Z,5.00
2023-01-17T15:05:15.515Z,5.00
2023-01-17T15:07:44.751Z,4.90
2023-01-17T15:10:17.347Z,4.90
2023-01-17T15:12:47.158Z,4.90
2023-01-17T15:15:46.343Z,4.80
2023-01-17T15:18:24.744Z,4.80
2023-01-17T15:21:02.129Z,4.70
2023-01-17T15:23:37.275Z,4.70
2023-01-17T15:26:07.099Z,4.70
2023-01-17T15:28:35.014Z,4.60
2023-01-17T15:31:10.383Z,4.50
2023-01-17T15:33:46.521Z,4.40
2023-01-17T15:36:27.360Z,4.30
2023-01-17T15:38:59.602Z,4.30
2023-01-17T15:41:38.237Z,4.20
2023-01-17T15:44:06.365Z,4.10
2023-01-17T15:46:42.126Z,4.00
2023-01-17T15:49:20.758Z,3.90
2023-01-17T15:51:56.762Z,3.80
2023-01-17T15:54:24.622Z,3.70
2023-01-17T15:57:22.432Z,3.60
2023-01-17T16:00:20.210Z,3.40
2023-01-17T16:02:55.308Z,3.30
2023-01-17T16:05:22.587Z,3.20
2023-01-17T16:07:54.989Z,3.10
2023-01-17T16:10:31.755Z,2.90
2023-01-17T16:12:59.326Z,2.80
2023-01-17T16:15:27.960Z,2.80
2023-01-17T16:18:01.114Z,2.70
2023-01-17T16:20:44.613Z,2.60
2023-01-17T16:23:11.916Z,2.50
2023-01-17T16:25:38.795Z,2.40
2023-01-17T16:28:06.101Z,2.40
2023-01-17T16:30:33.688Z,2.30
2023-01-17T16:33:00.820Z,2.20
2023-01-17T16:35:30.559Z,2.10
2023-01-17T16:37:59.807Z,2.10
2023-01-17T16:40:29.478Z,2.00
2023-01-17T16:42:57.142Z,1.90
2023-01-17T16:45:24.936Z,1.90
2023-01-17T16:47:53.287Z,1.70
2023-01-17T16:50:24.083Z,1.50
2023-01-17T16:52:52.295Z,1.50
2023-01-17T16:55:21.974Z,1.40
2023-01-17T16:57:49.952Z,1.40
2023-01-17T17:00:17.670Z,1.30
2023-01-17T17:02:44.549Z,1.20
2023-01-17T17:05:11.963Z,1.20
2023-01-17T17:07:45.360Z,1.10
2023-01-17T17:10:14.424Z,1.10
2023-01-17T17:12:41.708Z,1.00
2023-01-17T17:15:09.585Z,1.00
2023-01-17T17:17:41.423Z,0.90
2023-01-17T17:20:14.314Z,0.90
2023-01-17T17:22:44.221Z,0.80
2023-01-17T17:25:12.088Z,0.80
2023-01-17T17:27:38.981Z,0.70
2023-01-17T17:30:06.649Z,0.70
2023-01-17T17:32:33.965Z,0.60
2023-01-17T17:35:01.555Z,0.60
2023-01-17T17:37:29.247Z,0.50
2023-01-17T17:39:57.206Z,0.50
2023-01-17T17:42:24.394Z,0.40
2023-01-17T17:44:52.198Z,0.40
2023-01-17T17:47:19.513Z,0.30
2023-01-17T17:49:46.936Z,0.30
2023-01-17T17:52:13.859Z,0.30
2023-01-17T17:54:40.807Z,0.30
2023-01-17T17:57:07.750Z,0.20
2023-01-17T17:59:35.079Z,0.20
2023-01-17T18:02:02.098Z,0.20
2023-01-17T18:04:29.419Z,0.10
2023-01-17T18:06:58.274Z,0.10
2023-01-17T18:09:25.351Z,0.00
2023-01-17T18:11:52.461Z,0.00
2023-01-17T18:14:21.353Z,-0.10
2023-01-17T18:16:48.276Z,-0.10
2023-01-17T18:19:21.175Z,-0.10
2023-01-17T18:21:50.185Z,-0.10
2023-01-17T18:24:19.561Z,-0.20
2023-01-17T18:26:52.488Z,-0.20
2023-01-17T18:29:21.724Z,-0.20
2023-01-17T18:31:50.087Z,-0.30
2023-01-17T18:34:23.800Z,-0.30
2023-01-17T18:36:51.396Z,-0.30
2023-01-17T18:39:24.507Z,-0.30
2023-01-17T18:41:51.417Z,-0.30
2023-01-17T18:44:22.006Z,-0.40
2023-01-17T18:46:50.568Z,-0.40
2023-01-17T18:49:20.888Z,-0.40
2023-01-17T18:51:50.290Z,-0.40
2023-01-17T18:54:18.123Z,-0.40
2023-01-17T18:56:45.241Z,-0.50
2023-01-17T18:59:18.926Z,-0.50
2023-01-17T19:01:46.227Z,-0.60
2023-01-17T19:04:14.591Z,-0.60
2023-01-17T19:06:43.909Z,-0.60
2023-01-17T19:09:12.930Z,-0.70
2023-01-17T19:11:39.682Z,-0.70
2023-01-17T19:14:07.070Z,-0.60
2023-01-17T19:16:39.021Z,-0.70
2023-01-17T19:19:09.004Z,-0.70
2023-01-17T19:21:36.197Z,-0.80
2023-01-17T19:24:03.411Z,-0.80
2023-01-17T19:26:30.231Z,-0.90
2023-01-17T19:28:58.878Z,-0.90
2023-01-17T19:31:30.485Z,-0.90
2023-01-17T19:33:59.364Z,-0.90
2023-01-17T19:36:35.393Z,-1.00
2023-01-17T19:39:06.669Z,-1.00
2023-01-17T19:41:35.743Z,-1.00
2023-01-17T19:44:07.771Z,-1.10
2023-01-17T19:46:35.810Z,-1.10
2023-01-17T19:49:06.376Z,-1.10
2023-01-17T19:51:33.370Z,-1.10
2023-01-17T19:54:02.681Z,-1.10
2023-01-17T19:56:30.039Z,-1.10
2023-01-17T19:59:00.889Z,-1.10
2023-01-17T20:01:33.331Z,-1.10
2023-01-17T20:04:02.441Z,-1.20
2023-01-17T20:06:32.055Z,-1.20
2023-01-17T20:08:58.980Z,-1.30
2023-01-17T20:11:26.719Z,-1.30
2023-01-17T20:13:56.457Z,-1.40
2023-01-17T20:16:24.978Z,-1.40
2023-01-17T20:18:52.218Z,-1.40
2023-01-17T20:21:23.949Z,-1.40
2023-01-17T20:23:52.254Z,-1.40
2023-01-17T20:26:24.148Z,-1.40
2023-01-17T20:28:51.811Z,-1.50
2023-01-17T20:31:24.107Z,-1.50
2023-01-17T20:33:53.347Z,-1.60
2023-01-17T20:36:23.223Z,-1.50
2023-01-17T20:38:50.280Z,-1.50
2023-01-17T20:41:19.751Z,-1.50
2023-01-17T20:43:52.323Z,-1.60
2023-01-17T20:46:23.287Z,-1.60
2023-01-17T20:48:51.781Z,-1.60
2023-01-17T20:51:20.011Z,-1.70
2023-01-17T20:53:51.945Z,-1.70
2023-01-17T20:56:19.703Z,-1.70
2023-01-17T20:58:46.635Z,-1.70
2023-01-17T21:01:19.696Z,-1.80
2023-01-17T21:03:49.198Z,-1.80
2023-01-17T21:06:15.993Z,-1.80
2023-01-17T21:08:44.207Z,-1.80
2023-01-17T21:11:13.222Z,-1.80
2023-01-17T21:13:40.863Z,-1.80
2023-01-17T21:16:09.513Z,-1.80
2023-01-17T21:18:36.579Z,-1.80
2023-01-17T21:21:07.633Z,-1.80
2023-01-17T21:23:35.593Z,-1.80
2023-01-17T21:26:02.368Z,-1.80
2023-01-17T21:28:31.201Z,-1.80
2023-01-17T21:30:58.847Z,-1.90
2023-01-17T21:33:26.983Z,-1.90
2023-01-17T21:35:53.605Z,-1.90
2023-01-17T21:38:20.750Z,-2.00
2023-01-17T21:40:47.444Z,-2.00
2023-01-17T21:43:15.684Z,-1.90
2023-01-17T21:45:42.942Z,-1.90
2023-01-17T21:48:12.363Z,-2.00
2023-01-17T21:50:39.457Z,-1.90
2023-01-17T21:53:07.691Z,-2.00
2023-01-17T21:55:52.976Z,-2.00
2023-01-17T21:58:38.607Z,-2.00
2023-01-17T22:01:17.609Z,-2.00
2023-01-17T22:03:49.038Z,-2.10
2023-01-17T22:06:16.062Z,-2.10
2023-01-17T22:08:43.034Z,-2.10
2023-01-17T22:11:12.226Z,-2.20
2023-01-17T22:13:40.181Z,-2.20
2023-01-17T22:16:10.297Z,-2.30
2023-01-17T22:18:39.915Z,-2.30
2023-01-17T22:21:17.608Z,-2.30
2023-01-17T22:23:55.411Z,-2.30
2023-01-17T22:26:25.200Z,-2.30
2023-01-17T22:28:53.724Z,-2.30
2023-01-17T22:31:25.139Z,-2.30
2023-01-17T22:33:56.091Z,-2.30
2023-01-17T22:36:24.175Z,-2.30
2023-01-17T22:38:51.206Z,-2.30
2023-01-17T22:41:20.451Z,-2.30
2023-01-17T22:43:49.852Z,-2.40
2023-01-17T22:46:19.352Z,-2.40
2023-01-17T22:48:46.846Z,-2.40
2023-01-17T22:51:15.842Z,-2.40
2023-01-17T22:53:48.270Z,-2.40
2023-01-17T22:56:18.064Z,-2.40
2023-01-17T22:58:45.392Z,-2.50
2023-01-17T23:01:33.758Z,-2.50
2023-01-17T23:04:05.108Z,-2.50
2023-01-17T23:06:37.183Z,-2.50
2023-01-17T23:09:07.286Z,-2.50
2023-01-17T23:11:38.955Z,-2.50
2023-01-17T23:14:24.135Z,-2.60
2023-01-17T23:17:12.275Z,-2.60
2023-01-17T23:19:41.473Z,-2.60
2023-01-17T23:22:16.832Z,-2.60
2023-01-17T23:24:46.225Z,-2.70
2023-01-17T23:27:39.921Z,-2.70
2023-01-17T23:30:14.353Z,-2.70
2023-01-17T23:32:46.099Z,-2.70
2023-01-17T23:35:14.052Z,-2.70
2023-01-17T23:37:59.868Z,-2.70
2023-01-17T23:40:26.529Z,-2.70
2023-01-17T23:43:11.829Z,-2.70
2023-01-17T23:45:39.440Z,-2.80
2023-01-17T23:48:09.863Z,-2.70
2023-01-17T23:50:39.360Z,-2.80
2023-01-17T23:53:09.359Z,-2.70
2023-01-17T23:55:40.977Z,-2.70
2023-01-17T23:58:12.471Z,-2.70
